Time;durP1;ratioP1;P1;durP2;ratioP2;P2;SDS_P1;SDS_P2;PMS_P1;PMS_P2;Temp;Humidity;BMP_temperature;BMP_pressure;BME280_temperature;BME280_humidity;BME280_pressure;Samples;Min_cycle;Max_cycle;Signal;HPM_P1;HPM_P2
2023/06/06 00:01:05;;;;;;;;;;;19.10;64.20;;;;;;4996255;28;19968;-72
2023/06/06 00:03:30;;;;;;;;;;;19.00;64.20;;;;;;4998333;28;19962;-72
2023/06/06 00:05:59;;;;;;;;;;;19.00;64.10;;;;;;4983988;28;19913;-71
2023/06/06 00:08:50;;;;;;;;;;;19.00;64.20;;;;;;4982702;28;19997;-71
2023/06/06 00:11:25;;;;;;;;;;;19.00;64.50;;;;;;4978901;28;20009;-71
2023/06/06 00:13:50;;;;;;;;;;;18.90;64.30;;;;;;4984337;28;19921;-72
2023/06/06 00:16:16;;;;;;;;;;;18.90;64.50;;;;;;4979952;28;19922;-71
2023/06/06 00:18:45;;;;;;;;;;;18.90;64.70;;;;;;4984548;28;19921;-71
2023/06/06 00:21:32;;;;;;;;;;;18.80;64.80;;;;;;4977058;28;19917;-71
2023/06/06 00:24:01;;;;;;;;;;;18.80;64.50;;;;;;4984904;28;20379;-71
2023/06/06 00:26:26;;;;;;;;;;;18.80;65.00;;;;;;4981936;28;19953;-71
2023/06/06 00:28:52;;;;;;;;;;;18.80;64.90;;;;;;4982594;28;19984;-71
2023/06/06 00:31:24;;;;;;;;;;;18.70;65.10;;;;;;4983416;28;19914;-71
2023/06/06 00:34:16;;;;;;;;;;;18.70;65.10;;;;;;4976574;28;19911;-71
2023/06/06 00:37:15;;;;;;;;;;;18.70;65.20;;;;;;4974370;28;19925;-71
2023/06/06 00:39:43;;;;;;;;;;;18.60;64.90;;;;;;4982124;28;19914;-71
2023/06/06 00:42:24;;;;;;;;;;;18.60;65.50;;;;;;4984669;28;19910;-72
2023/06/06 00:44:55;;;;;;;;;;;18.60;65.50;;;;;;4984105;28;20044;-72
2023/06/06 00:47:21;;;;;;;;;;;18.50;65.40;;;;;;4978391;28;19920;-71
2023/06/06 00:50:14;;;;;;;;;;;18.50;65.70;;;;;;4985062;28;20352;-71
2023/06/06 00:52:49;;;;;;;;;;;18.50;65.70;;;;;;4987282;28;20015;-72
2023/06/06 00:55:18;;;;;;;;;;;18.40;66.10;;;;;;4985379;28;19944;-71
2023/06/06 00:58:04;;;;;;;;;;;18.40;65.90;;;;;;4985434;28;19936;-71
2023/06/06 01:00:51;;;;;;;;;;;18.40;65.80;;;;;;4998374;28;20017;-72
2023/06/06 01:03:20;;;;;;;;;;;18.40;65.90;;;;;;4987142;28;19965;-72
2023/06/06 01:05:58;;;;;;;;;;;18.40;66.00;;;;;;4987630;28;20012;-71
2023/06/06 01:08:33;;;;;;;;;;;18.30;66.10;;;;;;4985305;28;19914;-72
2023/06/06 01:11:20;;;;;;;;;;;18.30;66.20;;;;;;4983341;28;19963;-71
2023/06/06 01:14:36;;;;;;;;;;;18.30;66.60;;;;;;4987006;28;19914;-72
2023/06/06 01:20:09;;;;;;;;;;;18.20;66.40;;;;;;5000776;28;19929;-72
2023/06/06 01:22:46;;;;;;;;;;;18.20;66.60;;;;;;4986965;28;20020;-71
2023/06/06 01:25:25;;;;;;;;;;;18.10;66.80;;;;;;4982116;28;20000;-71
2023/06/06 01:27:56;;;;;;;;;;;18.10;66.90;;;;;;4987010;28;19920;-71
2023/06/06 01:30:24;;;;;;;;;;;18.10;67.00;;;;;;4986876;28;19914;-71
2023/06/06 01:33:17;;;;;;;;;;;18.10;66.90;;;;;;4980739;28;19966;-71
2023/06/06 01:35:55;;;;;;;;;;;18.10;66.70;;;;;;4983642;28;20694;-72
2023/06/06 01:38:46;;;;;;;;;;;18.00;66.60;;;;;;4987759;28;19965;-72
2023/06/06 01:43:57;;;;;;;;;;;18.00;67.30;;;;;;4981489;28;19917;-72
2023/06/06 01:46:47;;;;;;;;;;;17.90;67.30;;;;;;4984569;28;19910;-71
2023/06/06 01:49:13;;;;;;;;;;;17.90;67.20;;;;;;4986620;28;19910;-71
2023/06/06 01:51:45;;;;;;;;;;;17.90;67.10;;;;;;4986413;28;19956;-71
2023/06/06 01:54:10;;;;;;;;;;;17.90;67.10;;;;;;4985535;28;19914;-71
2023/06/06 01:56:36;;;;;;;;;;;17.90;67.00;;;;;;4984198;28;19975;-72
2023/06/06 01:59:17;;;;;;;;;;;17.80;67.40;;;;;;4986870;28;19914;-72
2023/06/06 02:01:43;;;;;;;;;;;17.80;67.30;;;;;;4986533;28;19914;-71
2023/06/06 02:04:44;;;;;;;;;;;17.80;67.50;;;;;;4983772;28;19914;-72
2023/06/06 02:07:11;;;;;;;;;;;17.70;67.80;;;;;;4974051;28;19945;-71
2023/06/06 02:09:42;;;;;;;;;;;17.70;67.80;;;;;;4975833;28;20271;-71
2023/06/06 02:12:23;;;;;;;;;;;17.70;67.90;;;;;;4981768;28;20720;-72
2023/06/06 02:14:49;;;;;;;;;;;17.70;67.60;;;;;;4975232;28;19914;-71
2023/06/06 02:20:26;;;;;;;;;;;17.60;68.00;;;;;;4985091;28;20397;-70
2023/06/06 02:26:03;;;;;;;;;;;17.60;67.90;;;;;;4985975;28;19952;-71
2023/06/06 02:28:31;;;;;;;;;;;17.50;68.10;;;;;;4985969;28;20008;-71
2023/06/06 02:31:44;;;;;;;;;;;17.50;68.20;;;;;;4985940;28;19914;-72
2023/06/06 02:34:32;;;;;;;;;;;17.50;68.20;;;;;;4961244;28;19964;-71
2023/06/06 02:37:13;;;;;;;;;;;17.50;68.30;;;;;;4962806;28;19953;-71
2023/06/06 02:40:10;;;;;;;;;;;17.40;68.30;;;;;;4958065;28;20491;-71
2023/06/06 02:42:38;;;;;;;;;;;17.40;68.70;;;;;;4962859;28;19915;-72
2023/06/06 02:45:26;;;;;;;;;;;17.40;68.30;;;;;;4972884;28;19959;-71
2023/06/06 02:48:00;;;;;;;;;;;17.40;68.30;;;;;;4978439;28;19914;-72
2023/06/06 02:50:38;;;;;;;;;;;17.40;68.60;;;;;;4981715;28;20396;-72
2023/06/06 02:53:16;;;;;;;;;;;17.30;68.80;;;;;;4986202;28;19914;-71
2023/06/06 02:59:01;;;;;;;;;;;17.20;68.90;;;;;;5044405;28;19917;-71
2023/06/06 03:02:09;;;;;;;;;;;17.20;68.80;;;;;;5044762;28;19920;-72
2023/06/06 03:04:50;;;;;;;;;;;17.20;68.80;;;;;;4993742;28;20445;-72
2023/06/06 03:10:35;;;;;;;;;;;17.10;69.10;;;;;;5023142;28;19979;-71
2023/06/06 03:13:19;;;;;;;;;;;17.10;68.80;;;;;;5025389;28;19920;-71
2023/06/06 03:16:03;;;;;;;;;;;17.10;69.30;;;;;;5024602;28;19913;-71
2023/06/06 03:18:46;;;;;;;;;;;17.10;68.90;;;;;;5025180;28;19920;-71
2023/06/06 03:21:15;;;;;;;;;;;17.00;69.10;;;;;;4948749;28;20550;-71
2023/06/06 03:24:13;;;;;;;;;;;17.00;68.90;;;;;;4943794;28;19929;-71
2023/06/06 03:27:11;;;;;;;;;;;17.00;69.30;;;;;;4944301;29;19915;-72
2023/06/06 03:29:55;;;;;;;;;;;17.00;69.40;;;;;;4960805;28;19915;-71
2023/06/06 03:35:36;;;;;;;;;;;16.90;69.40;;;;;;4924754;29;19922;-71
2023/06/06 03:38:23;;;;;;;;;;;16.90;69.80;;;;;;4940057;29;19914;-71
2023/06/06 03:41:03;;;;;;;;;;;16.90;69.80;;;;;;4943354;29;19968;-71
2023/06/06 03:43:35;;;;;;;;;;;16.90;69.50;;;;;;4943172;28;19997;-71
2023/06/06 03:46:06;;;;;;;;;;;16.90;69.80;;;;;;4944486;28;19910;-72
2023/06/06 03:48:44;;;;;;;;;;;16.80;69.80;;;;;;4985857;28;19917;-71
2023/06/06 03:54:27;;;;;;;;;;;16.80;69.80;;;;;;4980480;28;19964;-71
2023/06/06 03:56:54;;;;;;;;;;;16.80;69.80;;;;;;5026947;28;19927;-71
2023/06/06 03:59:39;;;;;;;;;;;16.80;70.00;;;;;;4984553;28;19921;-71
2023/06/06 04:02:13;;;;;;;;;;;16.70;69.60;;;;;;4983943;28;19918;-72
2023/06/06 04:04:40;;;;;;;;;;;16.70;69.70;;;;;;4984379;28;19914;-72
2023/06/06 04:07:44;;;;;;;;;;;16.70;70.10;;;;;;4985036;28;19910;-72
2023/06/06 04:10:19;;;;;;;;;;;16.70;70.00;;;;;;5010402;28;20343;-72
2023/06/06 04:13:02;;;;;;;;;;;16.70;69.80;;;;;;4950281;28;20082;-71
2023/06/06 04:15:28;;;;;;;;;;;16.60;70.00;;;;;;4984551;28;19951;-71
2023/06/06 04:18:00;;;;;;;;;;;16.70;70.00;;;;;;4987772;28;19918;-71
2023/06/06 04:20:28;;;;;;;;;;;16.60;69.80;;;;;;4983895;28;19921;-71
2023/06/06 04:23:09;;;;;;;;;;;16.60;70.10;;;;;;4987805;28;19922;-71
2023/06/06 04:25:40;;;;;;;;;;;16.60;70.10;;;;;;4988116;28;19913;-71
2023/06/06 04:28:09;;;;;;;;;;;16.60;70.20;;;;;;4987956;28;19948;-71
2023/06/06 04:30:47;;;;;;;;;;;16.60;70.10;;;;;;4985555;28;19997;-71
2023/06/06 04:33:16;;;;;;;;;;;16.60;70.70;;;;;;4987199;28;19914;-72
2023/06/06 04:36:16;;;;;;;;;;;16.60;70.20;;;;;;4985283;28;20504;-72
2023/06/06 04:38:51;;;;;;;;;;;16.50;70.40;;;;;;4986069;28;19943;-73
2023/06/06 04:41:23;;;;;;;;;;;16.50;70.30;;;;;;4987244;28;19916;-71
2023/06/06 04:47:04;;;;;;;;;;;16.50;70.30;;;;;;4969072;28;20367;-72
2023/06/06 04:49:48;;;;;;;;;;;16.50;70.40;;;;;;4987239;28;19921;-71
2023/06/06 04:52:18;;;;;;;;;;;16.50;70.30;;;;;;4987355;28;19914;-71
2023/06/06 04:55:11;;;;;;;;;;;16.50;70.30;;;;;;4987585;28;19921;-72
2023/06/06 04:57:58;;;;;;;;;;;16.50;70.40;;;;;;4987294;28;19918;-72
2023/06/06 05:00:24;;;;;;;;;;;16.50;70.50;;;;;;4964587;28;19941;-71
2023/06/06 05:06:06;;;;;;;;;;;16.50;70.40;;;;;;4943303;29;20358;-71
2023/06/06 05:08:32;;;;;;;;;;;16.50;70.70;;;;;;4945366;29;20024;-71
2023/06/06 05:10:58;;;;;;;;;;;16.40;70.50;;;;;;4923845;29;20280;-72
2023/06/06 05:13:47;;;;;;;;;;;16.50;70.50;;;;;;4944717;29;19915;-71
2023/06/06 05:16:19;;;;;;;;;;;16.40;70.40;;;;;;4945038;29;19988;-71
2023/06/06 05:18:59;;;;;;;;;;;16.50;70.60;;;;;;4945823;29;19915;-71
2023/06/06 05:21:33;;;;;;;;;;;16.50;70.70;;;;;;4944011;29;19929;-71
2023/06/06 05:24:35;;;;;;;;;;;16.50;70.60;;;;;;4942436;29;19918;-71
2023/06/06 05:27:00;;;;;;;;;;;16.50;70.50;;;;;;4945351;29;19911;-71
2023/06/06 05:29:58;;;;;;;;;;;16.50;70.60;;;;;;4943425;29;20368;-71
2023/06/06 05:35:45;;;;;;;;;;;16.40;70.60;;;;;;5025942;28;20005;-71
2023/06/06 05:38:12;;;;;;;;;;;16.50;70.70;;;;;;5005821;28;19910;-71
2023/06/06 05:41:02;;;;;;;;;;;16.40;70.70;;;;;;4937532;29;20375;-71
2023/06/06 05:47:01;;;;;;;;;;;16.40;70.70;;;;;;4941982;28;20105;-71
2023/06/06 05:49:56;;;;;;;;;;;16.40;70.70;;;;;;4954139;28;19914;-72
2023/06/06 05:52:37;;;;;;;;;;;16.50;70.70;;;;;;4984743;28;20000;-72
2023/06/06 05:55:03;;;;;;;;;;;16.40;70.60;;;;;;4984930;28;20540;-71
2023/06/06 05:57:40;;;;;;;;;;;16.40;70.50;;;;;;4984384;28;20024;-71
2023/06/06 06:00:19;;;;;;;;;;;16.40;70.70;;;;;;4986073;28;19921;-72
2023/06/06 06:02:44;;;;;;;;;;;16.40;70.70;;;;;;4982640;28;19962;-72
2023/06/06 06:05:13;;;;;;;;;;;16.50;70.70;;;;;;4985935;28;20390;-71
2023/06/06 06:07:52;;;;;;;;;;;16.50;70.70;;;;;;4985221;28;19976;-71
2023/06/06 06:10:37;;;;;;;;;;;16.50;70.70;;;;;;4984898;28;20333;-71
2023/06/06 06:13:11;;;;;;;;;;;16.50;70.70;;;;;;4983297;28;19917;-71
2023/06/06 06:15:41;;;;;;;;;;;16.50;70.70;;;;;;4985948;28;20754;-71
2023/06/06 06:18:34;;;;;;;;;;;16.50;70.80;;;;;;4985226;28;19967;-71
2023/06/06 06:21:05;;;;;;;;;;;16.50;70.80;;;;;;4986220;28;19913;-71
2023/06/06 06:23:40;;;;;;;;;;;16.50;70.70;;;;;;4985843;28;19929;-71
2023/06/06 06:26:41;;;;;;;;;;;16.50;70.70;;;;;;4986053;28;19925;-72
2023/06/06 06:29:09;;;;;;;;;;;16.50;70.60;;;;;;4943610;29;20005;-72
2023/06/06 06:32:04;;;;;;;;;;;16.50;70.70;;;;;;4977178;28;20297;-71
2023/06/06 06:34:48;;;;;;;;;;;16.50;70.70;;;;;;4945466;29;19968;-71
2023/06/06 06:37:13;;;;;;;;;;;16.50;70.70;;;;;;4945184;29;19918;-72
2023/06/06 06:39:42;;;;;;;;;;;16.60;70.70;;;;;;4944076;28;19933;-71
2023/06/06 06:42:13;;;;;;;;;;;16.60;70.70;;;;;;4943653;29;19997;-72
2023/06/06 06:45:04;;;;;;;;;;;16.60;70.80;;;;;;4943462;29;19911;-71
2023/06/06 06:47:36;;;;;;;;;;;16.60;70.60;;;;;;4918310;29;20406;-72
2023/06/06 06:50:11;;;;;;;;;;;16.60;70.70;;;;;;4923206;29;19922;-71
2023/06/06 06:52:39;;;;;;;;;;;16.60;70.80;;;;;;4937272;28;19976;-71
2023/06/06 06:55:09;;;;;;;;;;;16.70;70.70;;;;;;4943000;28;19926;-71
2023/06/06 06:57:56;;;;;;;;;;;16.60;71.30;;;;;;4943213;28;20073;-71
2023/06/06 07:00:37;;;;;;;;;;;16.60;70.70;;;;;;4943634;29;19918;-71
2023/06/06 07:06:32;;;;;;;;;;;16.70;70.70;;;;;;4935244;28;19964;-72
2023/06/06 07:08:57;;;;;;;;;;;16.70;70.60;;;;;;4944173;28;19919;-71
2023/06/06 07:11:53;;;;;;;;;;;16.70;70.60;;;;;;4928793;29;19996;-72
2023/06/06 07:14:21;;;;;;;;;;;16.70;70.60;;;;;;4949340;28;20013;-71
2023/06/06 07:16:52;;;;;;;;;;;16.70;70.70;;;;;;4944934;29;20691;-71
2023/06/06 07:19:24;;;;;;;;;;;16.70;70.60;;;;;;4942131;28;19921;-71
2023/06/06 07:22:11;;;;;;;;;;;16.70;70.70;;;;;;4943069;29;20723;-71
2023/06/06 07:24:36;;;;;;;;;;;16.80;70.60;;;;;;4962261;28;19918;-71
2023/06/06 07:27:06;;;;;;;;;;;16.80;70.70;;;;;;4985389;28;19921;-71
2023/06/06 07:29:37;;;;;;;;;;;16.80;70.70;;;;;;4983808;28;20344;-72
2023/06/06 07:38:25;;;;;;;;;;;16.80;70.70;;;;;;4979979;28;19924;-71
2023/06/06 07:40:50;;;;;;;;;;;16.90;70.60;;;;;;4986499;28;19918;-71
2023/06/06 07:43:28;;;;;;;;;;;16.90;70.60;;;;;;4984533;28;19921;-72
2023/06/06 07:45:53;;;;;;;;;;;16.90;70.60;;;;;;4983429;28;19921;-71
2023/06/06 07:48:37;;;;;;;;;;;16.90;70.60;;;;;;4982550;28;19910;-72
2023/06/06 07:51:12;;;;;;;;;;;16.90;70.40;;;;;;4984814;28;19914;-71
2023/06/06 07:53:37;;;;;;;;;;;17.00;70.50;;;;;;4984572;28;19914;-71
2023/06/06 07:56:03;;;;;;;;;;;17.00;70.30;;;;;;4984941;28;19918;-72
2023/06/06 07:58:40;;;;;;;;;;;17.00;70.40;;;;;;4983686;28;19917;-71
2023/06/06 08:07:21;;;;;;;;;;;17.00;70.20;;;;;;5004766;28;19956;-71
2023/06/06 08:09:50;;;;;;;;;;;17.10;70.30;;;;;;4979945;28;19999;-72
2023/06/06 08:12:15;;;;;;;;;;;17.10;70.10;;;;;;4984287;28;20291;-71
2023/06/06 08:14:50;;;;;;;;;;;17.10;70.10;;;;;;4984594;28;19914;-71
2023/06/06 08:17:24;;;;;;;;;;;17.10;70.20;;;;;;4977874;28;19918;-71
2023/06/06 08:19:56;;;;;;;;;;;17.20;70.10;;;;;;4976290;28;20070;-71
2023/06/06 08:22:46;;;;;;;;;;;17.20;70.20;;;;;;4980075;28;19975;-71
2023/06/06 08:25:24;;;;;;;;;;;17.20;69.90;;;;;;4984394;28;19921;-71
2023/06/06 08:27:58;;;;;;;;;;;17.20;70.00;;;;;;4984814;28;19914;-71
2023/06/06 08:30:26;;;;;;;;;;;17.30;70.00;;;;;;4982013;28;19917;-71
2023/06/06 08:32:52;;;;;;;;;;;17.30;70.60;;;;;;4979437;28;20426;-71
2023/06/06 08:35:19;;;;;;;;;;;17.30;69.90;;;;;;4985471;28;19928;-72
2023/06/06 08:44:12;;;;;;;;;;;17.40;69.80;;;;;;5043371;28;19924;-71
2023/06/06 08:46:38;;;;;;;;;;;17.40;69.70;;;;;;5043661;28;19990;-71
2023/06/06 08:49:06;;;;;;;;;;;17.50;69.70;;;;;;5043884;28;19912;-71
2023/06/06 08:51:34;;;;;;;;;;;17.50;69.60;;;;;;5044042;28;19909;-70
2023/06/06 08:54:01;;;;;;;;;;;17.50;69.70;;;;;;5007927;28;19913;-71
2023/06/06 08:56:37;;;;;;;;;;;17.50;69.70;;;;;;4977783;28;19918;-71
2023/06/06 08:59:02;;;;;;;;;;;17.60;69.50;;;;;;4984375;28;20279;-71
2023/06/06 09:01:40;;;;;;;;;;;17.70;69.30;;;;;;4979718;28;19910;-71
2023/06/06 09:04:06;;;;;;;;;;;17.70;69.10;;;;;;4983911;28;19959;-71
2023/06/06 09:06:34;;;;;;;;;;;17.70;69.10;;;;;;4987647;28;19918;-71
2023/06/06 09:09:48;;;;;;;;;;;17.80;69.10;;;;;;4985029;28;19913;-71
2023/06/06 09:12:17;;;;;;;;;;;17.80;68.90;;;;;;4964927;28;20508;-71
2023/06/06 09:15:00;;;;;;;;;;;17.90;68.70;;;;;;4965037;28;19914;-71
2023/06/06 09:21:09;;;;;;;;;;;17.90;68.50;;;;;;4974680;28;19929;-71
2023/06/06 09:24:00;;;;;;;;;;;18.00;68.50;;;;;;4992687;28;19926;-71
2023/06/06 09:26:28;;;;;;;;;;;18.10;68.40;;;;;;4987297;28;19925;-71
2023/06/06 09:29:11;;;;;;;;;;;18.10;68.50;;;;;;4987985;28;19967;-71
2023/06/06 09:31:38;;;;;;;;;;;18.10;68.40;;;;;;4983698;28;19949;-71
2023/06/06 09:34:04;;;;;;;;;;;18.20;68.30;;;;;;4988098;28;20279;-71
2023/06/06 09:36:45;;;;;;;;;;;18.30;68.30;;;;;;4991971;28;19936;-71
2023/06/06 09:42:29;;;;;;;;;;;18.30;68.40;;;;;;5002334;28;19921;-71
2023/06/06 09:44:54;;;;;;;;;;;18.40;68.50;;;;;;4987073;28;20364;-71
2023/06/06 09:47:23;;;;;;;;;;;18.50;68.50;;;;;;4986652;28;19914;-71
2023/06/06 09:50:00;;;;;;;;;;;18.50;68.20;;;;;;4987194;28;19963;-71
2023/06/06 09:52:29;;;;;;;;;;;18.60;68.80;;;;;;4985822;28;19942;-71
2023/06/06 09:54:58;;;;;;;;;;;18.60;68.10;;;;;;4987454;28;19909;-71
2023/06/06 09:57:26;;;;;;;;;;;18.70;68.00;;;;;;4986492;28;19921;-71
2023/06/06 10:00:14;;;;;;;;;;;18.80;67.70;;;;;;4982481;28;19953;-71
2023/06/06 10:02:57;;;;;;;;;;;18.90;67.50;;;;;;4986931;28;19914;-71
2023/06/06 10:05:41;;;;;;;;;;;18.90;67.60;;;;;;4984097;28;19976;-71
2023/06/06 10:08:29;;;;;;;;;;;19.00;67.60;;;;;;4982523;28;20398;-71
2023/06/06 10:10:56;;;;;;;;;;;19.10;67.80;;;;;;4987418;28;19927;-70
2023/06/06 10:13:40;;;;;;;;;;;19.10;67.50;;;;;;4981336;28;20347;-71
2023/06/06 10:16:06;;;;;;;;;;;19.20;67.20;;;;;;4983642;28;19921;-71
2023/06/06 10:18:35;;;;;;;;;;;19.30;67.60;;;;;;4982039;28;19914;-71
2023/06/06 10:21:08;;;;;;;;;;;19.40;67.40;;;;;;4986672;28;19914;-71
2023/06/06 10:23:43;;;;;;;;;;;19.50;67.30;;;;;;4983287;28;20264;-71
2023/06/06 10:26:28;;;;;;;;;;;19.60;67.30;;;;;;4984106;28;19920;-71
2023/06/06 10:32:18;;;;;;;;;;;19.70;67.20;;;;;;4986350;28;20037;-71
2023/06/06 10:40:55;;;;;;;;;;;20.00;67.00;;;;;;5044514;28;19954;-70
2023/06/06 10:43:44;;;;;;;;;;;20.10;67.30;;;;;;4989479;28;19914;-71
2023/06/06 10:46:16;;;;;;;;;;;20.10;67.30;;;;;;4986495;28;20005;-71
2023/06/06 10:52:03;;;;;;;;;;;20.20;67.30;;;;;;4982323;28;20379;-71
2023/06/06 10:55:03;;;;;;;;;;;20.40;67.50;;;;;;4983757;28;19917;-70
2023/06/06 10:57:28;;;;;;;;;;;20.50;67.10;;;;;;4985576;28;20014;-70
2023/06/06 11:00:12;;;;;;;;;;;20.70;67.20;;;;;;4982492;28;20519;-71
2023/06/06 11:05:55;;;;;;;;;;;20.80;66.90;;;;;;4985537;28;20308;-71
2023/06/06 11:08:36;;;;;;;;;;;21.00;66.60;;;;;;4973892;28;19914;-70
2023/06/06 11:11:40;;;;;;;;;;;21.20;66.60;;;;;;4981012;28;19914;-70
2023/06/06 11:14:07;;;;;;;;;;;21.30;66.40;;;;;;4985178;28;19913;-71
2023/06/06 11:19:59;;;;;;;;;;;21.50;66.40;;;;;;4985519;28;19921;-71
2023/06/06 11:22:25;;;;;;;;;;;21.60;66.30;;;;;;4984700;28;19967;-70
2023/06/06 11:25:06;;;;;;;;;;;21.60;66.40;;;;;;4986624;28;19921;-71
2023/06/06 11:27:49;;;;;;;;;;;21.70;66.30;;;;;;4984632;28;19914;-70
2023/06/06 11:30:18;;;;;;;;;;;21.80;66.60;;;;;;4984412;28;19926;-70
2023/06/06 11:35:55;;;;;;;;;;;22.00;66.40;;;;;;5043762;28;20053;-70
2023/06/06 11:38:20;;;;;;;;;;;22.10;66.10;;;;;;5002525;28;20099;-70
2023/06/06 11:40:48;;;;;;;;;;;22.30;65.90;;;;;;4985362;28;19937;-70
2023/06/06 11:43:14;;;;;;;;;;;22.40;65.70;;;;;;4981038;28;20336;-70
2023/06/06 11:48:56;;;;;;;;;;;22.60;65.40;;;;;;4981028;28;20492;-70
2023/06/06 11:51:44;;;;;;;;;;;22.70;65.10;;;;;;4984702;28;19917;-70
2023/06/06 11:54:22;;;;;;;;;;;22.80;65.00;;;;;;4945041;28;19914;-70
2023/06/06 11:56:59;;;;;;;;;;;22.90;64.70;;;;;;4983079;28;20063;-70
2023/06/06 11:59:32;;;;;;;;;;;23.00;64.80;;;;;;4985598;28;20420;-70
2023/06/06 12:05:30;;;;;;;;;;;23.20;64.90;;;;;;4961055;28;19925;-70
2023/06/06 12:07:59;;;;;;;;;;;23.30;64.80;;;;;;4960657;28;19921;-70
2023/06/06 12:13:48;;;;;;;;;;;23.40;64.70;;;;;;4962521;28;19930;-71
2023/06/06 12:16:48;;;;;;;;;;;23.40;64.70;;;;;;4963218;28;19919;-71
2023/06/06 12:19:25;;;;;;;;;;;23.40;64.80;;;;;;4960070;28;20610;-71
2023/06/06 12:21:51;;;;;;;;;;;23.40;64.70;;;;;;4964474;28;19920;-70
2023/06/06 12:27:33;;;;;;;;;;;23.60;64.80;;;;;;5010271;28;19909;-71
2023/06/06 12:30:05;;;;;;;;;;;23.60;64.60;;;;;;5001071;28;19949;-71
2023/06/06 12:32:36;;;;;;;;;;;23.60;64.40;;;;;;4925570;29;19915;-71
2023/06/06 12:35:11;;;;;;;;;;;23.70;64.50;;;;;;4941869;29;19918;-70
2023/06/06 12:41:18;;;;;;;;;;;23.70;64.40;;;;;;5012872;28;20366;-71
2023/06/06 12:43:49;;;;;;;;;;;23.90;64.30;;;;;;5027314;28;20379;-71
2023/06/06 12:46:15;;;;;;;;;;;23.90;64.00;;;;;;5026819;28;19917;-71
2023/06/06 12:49:33;;;;;;;;;;;24.10;63.80;;;;;;5026084;28;19913;-71
2023/06/06 12:52:11;;;;;;;;;;;24.10;63.50;;;;;;4972487;28;19976;-71
2023/06/06 12:54:43;;;;;;;;;;;24.30;63.40;;;;;;4973540;28;20016;-70
2023/06/06 12:57:31;;;;;;;;;;;24.30;63.20;;;;;;5022531;28;19940;-71
2023/06/06 13:00:15;;;;;;;;;;;24.40;63.10;;;;;;4943363;28;19915;-70
2023/06/06 13:03:31;;;;;;;;;;;24.40;62.90;;;;;;4944447;28;20411;-70
2023/06/06 13:05:56;;;;;;;;;;;24.50;63.00;;;;;;5002421;28;19920;-71
2023/06/06 13:08:22;;;;;;;;;;;24.50;63.00;;;;;;4998131;28;20409;-71
2023/06/06 13:11:29;;;;;;;;;;;24.50;62.90;;;;;;4992820;28;19921;-71
2023/06/06 13:14:41;;;;;;;;;;;24.60;62.60;;;;;;4982714;28;19925;-71
2023/06/06 13:17:07;;;;;;;;;;;24.60;62.70;;;;;;4985178;28;19921;-70
2023/06/06 13:19:36;;;;;;;;;;;24.70;62.60;;;;;;4986946;28;20255;-70
2023/06/06 13:22:02;;;;;;;;;;;24.80;62.60;;;;;;4985728;28;19967;-70
2023/06/06 13:30:54;;;;;;;;;;;24.90;62.70;;;;;;4990991;28;19944;-71
2023/06/06 13:36:41;;;;;;;;;;;24.90;62.50;;;;;;4968973;28;19917;-70
2023/06/06 13:39:32;;;;;;;;;;;24.90;62.50;;;;;;4985903;28;19925;-71
2023/06/06 13:42:09;;;;;;;;;;;24.90;62.70;;;;;;4964160;28;19910;-71
2023/06/06 13:44:56;;;;;;;;;;;24.90;62.80;;;;;;5019412;27;19918;-70
2023/06/06 13:47:32;;;;;;;;;;;24.90;62.90;;;;;;4985199;28;19910;-71
2023/06/06 13:49:57;;;;;;;;;;;24.80;63.00;;;;;;4985087;28;19918;-71
2023/06/06 13:52:34;;;;;;;;;;;24.80;63.10;;;;;;4985484;28;20263;-71
2023/06/06 13:55:04;;;;;;;;;;;24.80;63.10;;;;;;4984720;28;20059;-71
2023/06/06 14:01:01;;;;;;;;;;;24.80;63.10;;;;;;4982959;28;20365;-70
2023/06/06 14:03:39;;;;;;;;;;;24.80;63.10;;;;;;4975470;28;19917;-71
2023/06/06 14:06:13;;;;;;;;;;;24.80;63.00;;;;;;4981598;28;19910;-71
2023/06/06 14:08:41;;;;;;;;;;;24.90;62.90;;;;;;5002006;28;19908;-71
2023/06/06 14:11:10;;;;;;;;;;;25.00;62.80;;;;;;4990664;28;19913;-71
2023/06/06 14:13:45;;;;;;;;;;;25.00;62.00;;;;;;4985278;28;19914;-71
2023/06/06 14:16:32;;;;;;;;;;;25.00;62.70;;;;;;4986448;28;19914;-70
2023/06/06 14:19:03;;;;;;;;;;;25.10;62.70;;;;;;4985997;28;19910;-70
2023/06/06 14:24:30;;;;;;;;;;;25.00;62.60;;;;;;4982996;28;19928;-71
2023/06/06 14:26:56;;;;;;;;;;;25.10;62.40;;;;;;4986863;28;19921;-71
2023/06/06 14:29:30;;;;;;;;;;;25.20;62.60;;;;;;4993731;28;19913;-68
2023/06/06 14:32:02;;;;;;;;;;;25.20;62.70;;;;;;4989783;28;19921;-70
2023/06/06 14:34:41;;;;;;;;;;;25.20;62.80;;;;;;4985677;28;19909;-70
2023/06/06 14:37:09;;;;;;;;;;;25.20;62.90;;;;;;4982716;28;20382;-70
2023/06/06 14:42:19;;;;;;;;;;;25.20;63.00;;;;;;4982806;28;19917;-71
2023/06/06 14:44:45;;;;;;;;;;;25.20;63.00;;;;;;4985910;28;19918;-70
2023/06/06 14:47:26;;;;;;;;;;;25.20;63.00;;;;;;4985218;28;20012;-71
2023/06/06 14:49:51;;;;;;;;;;;25.20;63.00;;;;;;4986796;28;19920;-70
2023/06/06 14:52:23;;;;;;;;;;;25.20;63.20;;;;;;4985197;28;19910;-71
2023/06/06 14:57:57;;;;;;;;;;;25.20;63.20;;;;;;4983136;28;19925;-71
2023/06/06 15:00:50;;;;;;;;;;;25.20;63.20;;;;;;4983665;28;19914;-70
2023/06/06 15:06:00;;;;;;;;;;;25.20;63.40;;;;;;4994245;28;19985;-70
2023/06/06 15:08:59;;;;;;;;;;;25.30;62.80;;;;;;5011180;28;19990;-70
2023/06/06 15:11:36;;;;;;;;;;;25.30;62.90;;;;;;4994693;28;19912;-70
2023/06/06 15:14:14;;;;;;;;;;;25.50;63.10;;;;;;5030088;28;19921;-71
2023/06/06 15:16:39;;;;;;;;;;;25.70;62.60;;;;;;5015128;28;19964;-70
2023/06/06 15:19:17;;;;;;;;;;;25.70;62.30;;;;;;4999018;28;19991;-71
2023/06/06 15:22:15;;;;;;;;;;;25.80;62.30;;;;;;4979603;28;19921;-70
2023/06/06 15:24:44;;;;;;;;;;;25.80;62.00;;;;;;4955803;28;19916;-70
2023/06/06 15:27:10;;;;;;;;;;;25.80;62.00;;;;;;5004595;28;19909;-71
2023/06/06 15:29:57;;;;;;;;;;;25.90;62.10;;;;;;5002627;28;20009;-71
2023/06/06 15:32:26;;;;;;;;;;;26.00;61.80;;;;;;4991799;28;19918;-71
2023/06/06 15:35:00;;;;;;;;;;;26.10;61.50;;;;;;4985740;28;19926;-71
2023/06/06 15:37:35;;;;;;;;;;;26.40;61.10;;;;;;5004893;28;19922;-70
2023/06/06 15:40:15;;;;;;;;;;;26.50;60.70;;;;;;4985294;28;20364;-71
2023/06/06 15:49:56;;;;;;;;;;;27.00;59.30;;;;;;4997003;28;19922;-71
2023/06/06 15:52:28;;;;;;;;;;;27.30;59.10;;;;;;4963533;28;19983;-71
2023/06/06 15:55:03;;;;;;;;;;;27.50;58.90;;;;;;4960503;28;19912;-71
2023/06/06 15:58:10;;;;;;;;;;;27.80;58.60;;;;;;4976779;28;19914;-70
2023/06/06 16:00:41;;;;;;;;;;;28.20;57.70;;;;;;4943189;29;19915;-71
2023/06/06 16:03:07;;;;;;;;;;;28.40;57.10;;;;;;4938090;29;20307;-71
2023/06/06 16:06:08;;;;;;;;;;;28.30;57.00;;;;;;4935667;29;19915;-70
2023/06/06 16:09:00;;;;;;;;;;;28.10;57.20;;;;;;4968780;28;19914;-71
2023/06/06 16:11:37;;;;;;;;;;;27.90;57.60;;;;;;4932778;28;19949;-71
2023/06/06 16:14:18;;;;;;;;;;;27.70;57.70;;;;;;4941162;29;20000;-71
2023/06/06 16:17:08;;;;;;;;;;;27.50;57.30;;;;;;4935195;29;19918;-71
2023/06/06 16:19:37;;;;;;;;;;;27.40;57.80;;;;;;4938145;28;19968;-71
2023/06/06 16:22:49;;;;;;;;;;;27.30;57.90;;;;;;4943734;29;19918;-71
2023/06/06 16:25:33;;;;;;;;;;;27.20;58.00;;;;;;4939192;28;19922;-71
2023/06/06 16:31:02;;;;;;;;;;;27.30;57.90;;;;;;5046645;28;19920;-71
2023/06/06 16:33:36;;;;;;;;;;;27.50;57.60;;;;;;4987863;28;19914;-71
2023/06/06 16:36:18;;;;;;;;;;;27.50;57.30;;;;;;4980726;28;19913;-70
2023/06/06 16:41:55;;;;;;;;;;;27.40;57.30;;;;;;5024135;28;19918;-70
2023/06/06 16:44:21;;;;;;;;;;;27.30;57.50;;;;;;4987936;28;19945;-70
2023/06/06 16:46:51;;;;;;;;;;;27.20;57.70;;;;;;4988373;28;19944;-70
2023/06/06 16:49:16;;;;;;;;;;;27.00;57.80;;;;;;4987131;28;20447;-71
2023/06/06 16:51:44;;;;;;;;;;;27.00;57.70;;;;;;4987986;28;19910;-71
2023/06/06 16:54:16;;;;;;;;;;;27.10;57.80;;;;;;4987233;28;20390;-71
2023/06/06 16:57:00;;;;;;;;;;;27.20;57.40;;;;;;4983459;28;19918;-71
2023/06/06 16:59:29;;;;;;;;;;;27.20;57.30;;;;;;4980776;28;19910;-71
2023/06/06 17:02:13;;;;;;;;;;;27.20;57.50;;;;;;4977887;28;19958;-70
2023/06/06 17:04:45;;;;;;;;;;;27.10;57.50;;;;;;4977597;28;20461;-71
2023/06/06 17:07:38;;;;;;;;;;;26.90;57.80;;;;;;5016324;28;19939;-71
2023/06/06 17:10:34;;;;;;;;;;;26.80;57.90;;;;;;4983698;28;19916;-71
2023/06/06 17:13:01;;;;;;;;;;;26.70;58.30;;;;;;4984882;28;19909;-71
2023/06/06 17:15:27;;;;;;;;;;;26.60;58.50;;;;;;4996712;28;19992;-71
2023/06/06 17:21:21;;;;;;;;;;;26.40;58.70;;;;;;4986789;28;19960;-71
2023/06/06 17:23:53;;;;;;;;;;;26.30;58.60;;;;;;4961231;28;19968;-70
2023/06/06 17:26:43;;;;;;;;;;;26.20;59.00;;;;;;4982372;28;19909;-71
2023/06/06 17:29:12;;;;;;;;;;;26.20;58.90;;;;;;4988209;28;19910;-71
2023/06/06 17:31:37;;;;;;;;;;;26.10;59.00;;;;;;4990160;28;19966;-70
2023/06/06 17:34:05;;;;;;;;;;;26.00;59.10;;;;;;4980468;28;20000;-70
2023/06/06 17:36:46;;;;;;;;;;;26.00;59.30;;;;;;4999090;28;19925;-71